sensor_id;sensor_type;location;lat;lon;timestamp;pressure;altitude;pressure_sealevel;temperature;humidity
21706;BME280;11014;53.076;18.208;2023-06-26T00:03:25;101333.31;;;20.08;57.06
21706;BME280;11014;53.076;18.208;2023-06-26T00:05:54;101325.16;;;19.98;57.87
21706;BME280;11014;53.076;18.208;2023-06-26T00:08:23;101332.53;;;19.93;58.45
21706;BME280;11014;53.076;18.208;2023-06-26T00:10:52;101333.34;;;19.88;58.61
21706;BME280;11014;53.076;18.208;2023-06-26T00:13:23;101330.06;;;19.86;58.87
21706;BME280;11014;53.076;18.208;2023-06-26T00:15:51;101323.53;;;19.87;58.68
21706;BME280;11014;53.076;18.208;2023-06-26T00:18:20;101328.97;;;19.87;58.98
21706;BME280;11014;53.076;18.208;2023-06-26T00:20:49;101334.44;;;19.87;59.11
21706;BME280;11014;53.076;18.208;2023-06-26T00:23:18;101334.97;;;19.84;59.39
21706;BME280;11014;53.076;18.208;2023-06-26T00:25:47;101330.63;;;19.78;59.41
21706;BME280;11014;53.076;18.208;2023-06-26T00:28:16;101333.09;;;19.70;60.17
21706;BME280;11014;53.076;18.208;2023-06-26T00:30:45;101327.91;;;19.63;60.33
21706;BME280;11014;53.076;18.208;2023-06-26T00:33:14;101328.47;;;19.60;60.30
21706;BME280;11014;53.076;18.208;2023-06-26T00:35:43;101318.09;;;19.57;60.20
21706;BME280;11014;53.076;18.208;2023-06-26T00:38:13;101315.91;;;19.54;60.40
21706;BME280;11014;53.076;18.208;2023-06-26T00:40:42;101325.22;;;19.48;60.50
21706;BME280;11014;53.076;18.208;2023-06-26T00:43:12;101325.72;;;19.40;60.77
21706;BME280;11014;53.076;18.208;2023-06-26T00:45:42;101325.69;;;19.35;60.69
21706;BME280;11014;53.076;18.208;2023-06-26T00:48:11;101322.97;;;19.30;61.11
21706;BME280;11014;53.076;18.208;2023-06-26T00:50:41;101321.34;;;19.29;60.98
21706;BME280;11014;53.076;18.208;2023-06-26T00:53:11;101322.16;;;19.29;61.35
21706;BME280;11014;53.076;18.208;2023-06-26T00:55:40;101318.63;;;19.29;61.16
21706;BME280;11014;53.076;18.208;2023-06-26T00:58:10;101320.78;;;19.32;60.82
21706;BME280;11014;53.076;18.208;2023-06-26T01:00:40;101321.88;;;19.26;60.99
21706;BME280;11014;53.076;18.208;2023-06-26T01:03:09;101322.97;;;19.20;60.96
21706;BME280;11014;53.076;18.208;2023-06-26T01:05:39;101315.88;;;19.09;61.19
21706;BME280;11014;53.076;18.208;2023-06-26T01:08:08;101315.59;;;19.05;61.30
21706;BME280;11014;53.076;18.208;2023-06-26T01:10:37;101315.28;;;19.02;61.30
21706;BME280;11014;53.076;18.208;2023-06-26T01:13:07;101316.41;;;19.01;61.54
21706;BME280;11014;53.076;18.208;2023-06-26T01:15:36;101306.31;;;18.96;61.40
21706;BME280;11014;53.076;18.208;2023-06-26T01:18:05;101310.66;;;18.92;61.67
21706;BME280;11014;53.076;18.208;2023-06-26T01:20:36;101311.47;;;18.92;61.58
21706;BME280;11014;53.076;18.208;2023-06-26T01:28:41;101310.88;;;18.75;61.71
21706;BME280;11014;53.076;18.208;2023-06-26T01:31:11;101296.44;;;18.70;62.03
21706;BME280;11014;53.076;18.208;2023-06-26T01:33:41;101300.25;;;18.69;61.94
21706;BME280;11014;53.076;18.208;2023-06-26T01:36:10;101296.72;;;18.68;61.86
21706;BME280;11014;53.076;18.208;2023-06-26T01:38:39;101295.34;;;18.66;62.34
21706;BME280;11014;53.076;18.208;2023-06-26T01:41:08;101294.53;;;18.60;62.30
21706;BME280;11014;53.076;18.208;2023-06-26T01:46:22;101294.19;;;18.47;62.54
21706;BME280;11014;53.076;18.208;2023-06-26T01:51:55;101293.34;;;18.41;62.65
21706;BME280;11014;53.076;18.208;2023-06-26T01:55:03;101288.16;;;18.40;62.89
21706;BME280;11014;53.076;18.208;2023-06-26T01:57:35;101286.19;;;18.25;62.79
21706;BME280;11014;53.076;18.208;2023-06-26T02:00:05;101292.69;;;18.24;63.13
21706;BME280;11014;53.076;18.208;2023-06-26T02:02:47;101290.81;;;18.24;62.82
21706;BME280;11014;53.076;18.208;2023-06-26T02:05:17;101279.09;;;18.19;63.09
21706;BME280;11014;53.076;18.208;2023-06-26T02:07:48;101285.88;;;18.16;62.89
21706;BME280;11014;53.076;18.208;2023-06-26T02:10:17;101283.38;;;18.10;63.33
21706;BME280;11014;53.076;18.208;2023-06-26T02:12:47;101283.66;;;18.08;63.22
21706;BME280;11014;53.076;18.208;2023-06-26T02:15:16;101279.56;;;18.06;63.02
21706;BME280;11014;53.076;18.208;2023-06-26T02:17:45;101282.53;;;18.04;63.16
21706;BME280;11014;53.076;18.208;2023-06-26T02:20:17;101282.91;;;18.23;62.72
21706;BME280;11014;53.076;18.208;2023-06-26T02:22:45;101274.88;;;17.96;62.65
21706;BME280;11014;53.076;18.208;2023-06-26T02:25:14;101267.50;;;17.87;63.24
21706;BME280;11014;53.076;18.208;2023-06-26T02:27:43;101277.28;;;17.88;63.41
21706;BME280;11014;53.076;18.208;2023-06-26T02:30:13;101280.00;;;17.93;63.22
21706;BME280;11014;53.076;18.208;2023-06-26T02:32:43;101277.88;;;17.95;63.23
21706;BME280;11014;53.076;18.208;2023-06-26T02:35:12;101277.88;;;17.95;63.12
21706;BME280;11014;53.076;18.208;2023-06-26T02:37:42;101280.31;;;17.96;63.35
21706;BME280;11014;53.076;18.208;2023-06-26T02:40:11;101277.34;;;17.98;63.16
21706;BME280;11014;53.076;18.208;2023-06-26T02:42:42;101274.06;;;17.96;63.34
21706;BME280;11014;53.076;18.208;2023-06-26T02:45:10;101276.75;;;17.91;63.25
21706;BME280;11014;53.076;18.208;2023-06-26T02:47:41;101275.94;;;17.90;63.17
21706;BME280;11014;53.076;18.208;2023-06-26T02:50:15;101270.75;;;17.84;63.43
21706;BME280;11014;53.076;18.208;2023-06-26T02:53:04;101274.75;;;17.76;63.61
21706;BME280;11014;53.076;18.208;2023-06-26T02:55:37;101271.78;;;17.77;63.71
21706;BME280;11014;53.076;18.208;2023-06-26T02:58:06;101282.97;;;17.81;63.48
21706;BME280;11014;53.076;18.208;2023-06-26T03:00:36;101278.31;;;17.82;63.88
21706;BME280;11014;53.076;18.208;2023-06-26T03:03:15;101282.41;;;17.84;63.73
21706;BME280;11014;53.076;18.208;2023-06-26T03:05:44;101281.03;;;17.82;63.71
21706;BME280;11014;53.076;18.208;2023-06-26T03:08:14;101284.31;;;17.79;64.06
21706;BME280;11014;53.076;18.208;2023-06-26T03:10:44;101279.38;;;17.75;64.07
21706;BME280;11014;53.076;18.208;2023-06-26T03:13:12;101283.72;;;17.76;64.12
21706;BME280;11014;53.076;18.208;2023-06-26T03:15:44;101277.22;;;17.77;64.48
21706;BME280;11014;53.076;18.208;2023-06-26T03:18:15;101278.88;;;17.79;64.38
21706;BME280;11014;53.076;18.208;2023-06-26T03:20:45;101281.00;;;17.76;64.68
21706;BME280;11014;53.076;18.208;2023-06-26T03:23:14;101283.22;;;17.80;64.71
21706;BME280;11014;53.076;18.208;2023-06-26T03:25:43;101273.44;;;17.79;65.05
21706;BME280;11014;53.076;18.208;2023-06-26T03:28:35;101279.69;;;17.84;64.73
21706;BME280;11014;53.076;18.208;2023-06-26T03:31:04;101269.41;;;17.86;65.15
21706;BME280;11014;53.076;18.208;2023-06-26T03:33:34;101280.53;;;17.90;65.37
21706;BME280;11014;53.076;18.208;2023-06-26T03:36:04;101267.53;;;17.92;65.13
21706;BME280;11014;53.076;18.208;2023-06-26T03:38:32;101281.13;;;17.97;65.18
21706;BME280;11014;53.076;18.208;2023-06-26T03:41:01;101279.28;;;18.02;65.22
21706;BME280;11014;53.076;18.208;2023-06-26T03:43:30;101277.41;;;18.08;65.36
21706;BME280;11014;53.076;18.208;2023-06-26T03:46:15;101280.44;;;18.16;65.32
21706;BME280;11014;53.076;18.208;2023-06-26T03:48:44;101278.56;;;18.22;65.39
21706;BME280;11014;53.076;18.208;2023-06-26T03:51:15;101282.38;;;18.31;65.79
21706;BME280;11014;53.076;18.208;2023-06-26T03:54:02;101285.16;;;18.41;65.40
21706;BME280;11014;53.076;18.208;2023-06-26T03:56:31;101283.53;;;18.45;65.74
21706;BME280;11014;53.076;18.208;2023-06-26T03:59:00;101273.81;;;18.54;66.19
21706;BME280;11014;53.076;18.208;2023-06-26T04:01:29;101284.72;;;18.64;66.51
21706;BME280;11014;53.076;18.208;2023-06-26T04:04:00;101265.16;;;18.72;66.83
21706;BME280;11014;53.076;18.208;2023-06-26T04:06:29;101277.69;;;18.83;67.21
21706;BME280;11014;53.076;18.208;2023-06-26T04:09:00;101280.44;;;18.93;67.29
21706;BME280;11014;53.076;18.208;2023-06-26T04:11:30;101274.75;;;19.05;67.61
21706;BME280;11014;53.076;18.208;2023-06-26T04:13:59;101279.94;;;19.17;67.71
21706;BME280;11014;53.076;18.208;2023-06-26T04:16:28;101275.84;;;19.29;67.66
21706;BME280;11014;53.076;18.208;2023-06-26T04:18:57;101266.06;;;19.38;68.07
21706;BME280;11014;53.076;18.208;2023-06-26T04:21:26;101280.50;;;19.54;68.24
21706;BME280;11014;53.076;18.208;2023-06-26T04:23:54;101281.56;;;19.68;67.88
21706;BME280;11014;53.076;18.208;2023-06-26T04:26:23;101272.84;;;19.76;67.91
21706;BME280;11014;53.076;18.208;2023-06-26T04:28:54;101278.25;;;19.86;68.07
21706;BME280;11014;53.076;18.208;2023-06-26T04:31:23;101265.72;;;19.95;67.84
21706;BME280;11014;53.076;18.208;2023-06-26T04:33:52;101266.50;;;20.06;67.65
21706;BME280;11014;53.076;18.208;2023-06-26T04:36:23;101271.94;;;20.16;67.61
21706;BME280;11014;53.076;18.208;2023-06-26T04:38:55;101273.81;;;20.26;67.34
21706;BME280;11014;53.076;18.208;2023-06-26T04:41:25;101274.06;;;20.34;67.23
21706;BME280;11014;53.076;18.208;2023-06-26T04:43:53;101274.84;;;20.45;67.11
21706;BME280;11014;53.076;18.208;2023-06-26T04:46:22;101272.03;;;20.55;66.50
21706;BME280;11014;53.076;18.208;2023-06-26T04:48:50;101275.00;;;20.63;66.24
21706;BME280;11014;53.076;18.208;2023-06-26T04:51:19;101271.94;;;20.75;66.01
21706;BME280;11014;53.076;18.208;2023-06-26T04:53:49;101273.00;;;20.84;65.71
21706;BME280;11014;53.076;18.208;2023-06-26T04:56:17;101269.09;;;20.95;65.79
21706;BME280;11014;53.076;18.208;2023-06-26T04:58:46;101274.47;;;21.05;65.35
21706;BME280;11014;53.076;18.208;2023-06-26T05:01:14;101278.53;;;21.13;65.21
21706;BME280;11014;53.076;18.208;2023-06-26T05:03:43;101280.09;;;21.24;64.82
21706;BME280;11014;53.076;18.208;2023-06-26T05:06:13;101276.50;;;21.34;64.27
21706;BME280;11014;53.076;18.208;2023-06-26T05:08:42;101265.47;;;21.44;64.26
21706;BME280;11014;53.076;18.208;2023-06-26T05:11:11;101267.28;;;21.53;63.97
21706;BME280;11014;53.076;18.208;2023-06-26T05:13:39;101275.97;;;21.60;63.43
21706;BME280;11014;53.076;18.208;2023-06-26T05:16:08;101271.22;;;21.71;62.72
21706;BME280;11014;53.076;18.208;2023-06-26T05:18:37;101268.38;;;21.81;62.63
21706;BME280;11014;53.076;18.208;2023-06-26T05:21:06;101265.56;;;21.91;62.59
21706;BME280;11014;53.076;18.208;2023-06-26T05:23:35;101260.50;;;22.03;62.25
21706;BME280;11014;53.076;18.208;2023-06-26T05:26:04;101257.63;;;22.13;61.49
21706;BME280;11014;53.076;18.208;2023-06-26T05:28:33;101256.72;;;22.23;61.50
21706;BME280;11014;53.076;18.208;2023-06-26T05:31:04;101266.66;;;22.37;61.12
21706;BME280;11014;53.076;18.208;2023-06-26T05:33:35;101259.41;;;22.47;60.97
21706;BME280;11014;53.076;18.208;2023-06-26T05:36:07;101254.91;;;22.56;60.79
21706;BME280;11014;53.076;18.208;2023-06-26T05:38:36;101260.28;;;22.66;60.54
21706;BME280;11014;53.076;18.208;2023-06-26T05:41:05;101256.34;;;22.72;60.18
21706;BME280;11014;53.076;18.208;2023-06-26T05:43:34;101259.53;;;22.79;59.90
21706;BME280;11014;53.076;18.208;2023-06-26T05:46:03;101266.28;;;22.86;59.98
21706;BME280;11014;53.076;18.208;2023-06-26T05:48:31;101259.00;;;22.95;59.88
21706;BME280;11014;53.076;18.208;2023-06-26T05:51:00;101253.97;;;23.02;59.17
21706;BME280;11014;53.076;18.208;2023-06-26T05:53:29;101253.00;;;23.12;58.90
21706;BME280;11014;53.076;18.208;2023-06-26T05:55:58;101255.88;;;23.21;58.98
21706;BME280;11014;53.076;18.208;2023-06-26T05:58:27;101249.41;;;23.30;58.85
21706;BME280;11014;53.076;18.208;2023-06-26T06:00:56;101239.13;;;23.41;58.27
21706;BME280;11014;53.076;18.208;2023-06-26T06:03:25;101241.19;;;23.49;57.92
21706;BME280;11014;53.076;18.208;2023-06-26T06:05:54;101240.47;;;23.57;57.93
21706;BME280;11014;53.076;18.208;2023-06-26T06:08:22;101240.59;;;23.66;57.92
21706;BME280;11014;53.076;18.208;2023-06-26T06:10:51;101253.00;;;23.77;57.38
21706;BME280;11014;53.076;18.208;2023-06-26T06:13:19;101243.47;;;23.88;57.25
21706;BME280;11014;53.076;18.208;2023-06-26T06:15:49;101235.94;;;23.93;56.91
21706;BME280;11014;53.076;18.208;2023-06-26T06:18:17;101242.03;;;24.04;56.53
21706;BME280;11014;53.076;18.208;2023-06-26T06:20:46;101236.38;;;24.14;56.41
21706;BME280;11014;53.076;18.208;2023-06-26T06:23:14;101243.28;;;24.25;56.42
21706;BME280;11014;53.076;18.208;2023-06-26T06:25:43;101239.81;;;24.33;55.32
21706;BME280;11014;53.076;18.208;2023-06-26T06:28:12;101239.41;;;24.40;54.81
21706;BME280;11014;53.076;18.208;2023-06-26T06:30:41;101243.84;;;24.49;54.24
21706;BME280;11014;53.076;18.208;2023-06-26T06:33:13;101241.34;;;24.89;54.22
21706;BME280;11014;53.076;18.208;2023-06-26T06:35:42;101237.28;;;24.72;54.77
21706;BME280;11014;53.076;18.208;2023-06-26T06:38:11;101242.13;;;24.75;54.72
21706;BME280;11014;53.076;18.208;2023-06-26T06:40:40;101243.41;;;24.83;54.51
21706;BME280;11014;53.076;18.208;2023-06-26T06:43:09;101243.16;;;24.93;53.74
21706;BME280;11014;53.076;18.208;2023-06-26T06:45:38;101239.31;;;25.03;53.72
21706;BME280;11014;53.076;18.208;2023-06-26T06:48:06;101236.34;;;25.13;53.72
21706;BME280;11014;53.076;18.208;2023-06-26T06:50:35;101234.44;;;25.22;53.43
21706;BME280;11014;53.076;18.208;2023-06-26T06:53:04;101230.31;;;25.33;52.94
21706;BME280;11014;53.076;18.208;2023-06-26T06:55:33;101238.81;;;25.45;52.88
21706;BME280;11014;53.076;18.208;2023-06-26T06:58:01;101234.22;;;25.54;52.49
21706;BME280;11014;53.076;18.208;2023-06-26T07:00:33;101230.56;;;25.67;51.43
21706;BME280;11014;53.076;18.208;2023-06-26T07:03:01;101238.03;;;25.75;51.55
21706;BME280;11014;53.076;18.208;2023-06-26T07:05:31;101234.50;;;25.83;50.95
21706;BME280;11014;53.076;18.208;2023-06-26T07:08:00;101240.88;;;25.92;51.68
21706;BME280;11014;53.076;18.208;2023-06-26T07:10:31;101238.44;;;26.00;51.14
21706;BME280;11014;53.076;18.208;2023-06-26T07:13:00;101238.31;;;26.05;51.07
21706;BME280;11014;53.076;18.208;2023-06-26T07:15:32;101228.16;;;26.14;50.40
21706;BME280;11014;53.076;18.208;2023-06-26T07:18:01;101234.19;;;26.24;50.15
21706;BME280;11014;53.076;18.208;2023-06-26T07:20:30;101237.44;;;26.35;50.66
21706;BME280;11014;53.076;18.208;2023-06-26T07:22:58;101228.88;;;26.45;49.56
21706;BME280;11014;53.076;18.208;2023-06-26T07:25:27;101234.91;;;26.56;49.82
21706;BME280;11014;53.076;18.208;2023-06-26T07:27:56;101232.63;;;26.66;48.59
21706;BME280;11014;53.076;18.208;2023-06-26T07:30:24;101238.94;;;26.75;49.03
21706;BME280;11014;53.076;18.208;2023-06-26T07:32:53;101232.19;;;26.81;47.84
21706;BME280;11014;53.076;18.208;2023-06-26T07:35:22;101235.75;;;26.90;47.51
21706;BME280;11014;53.076;18.208;2023-06-26T07:37:50;101228.78;;;27.01;48.48
21706;BME280;11014;53.076;18.208;2023-06-26T07:40:21;101233.13;;;27.11;48.25
21706;BME280;11014;53.076;18.208;2023-06-26T07:42:49;101224.38;;;27.18;46.43
21706;BME280;11014;53.076;18.208;2023-06-26T07:45:18;101229.06;;;27.26;47.21
21706;BME280;11014;53.076;18.208;2023-06-26T07:47:47;101220.25;;;27.32;46.75
21706;BME280;11014;53.076;18.208;2023-06-26T07:50:16;101222.88;;;27.37;46.40
21706;BME280;11014;53.076;18.208;2023-06-26T07:52:49;101212.50;;;27.43;45.66
21706;BME280;11014;53.076;18.208;2023-06-26T07:55:18;101216.22;;;27.47;46.88
21706;BME280;11014;53.076;18.208;2023-06-26T07:57:47;101214.25;;;27.56;46.72
21706;BME280;11014;53.076;18.208;2023-06-26T08:00:16;101217.78;;;27.65;47.04
21706;BME280;11014;53.076;18.208;2023-06-26T08:02:47;101209.94;;;27.76;46.16
21706;BME280;11014;53.076;18.208;2023-06-26T08:05:16;101214.63;;;27.84;46.60
21706;BME280;11014;53.076;18.208;2023-06-26T08:07:45;101212.50;;;27.89;45.11
21706;BME280;11014;53.076;18.208;2023-06-26T08:10:24;101207.59;;;27.95;46.69
21706;BME280;11014;53.076;18.208;2023-06-26T08:12:54;101210.81;;;28.05;46.15
21706;BME280;11014;53.076;18.208;2023-06-26T08:15:24;101213.38;;;28.10;46.81
21706;BME280;11014;53.076;18.208;2023-06-26T08:17:55;101205.84;;;28.19;45.50
21706;BME280;11014;53.076;18.208;2023-06-26T08:20:24;101201.56;;;28.31;45.69
21706;BME280;11014;53.076;18.208;2023-06-26T08:22:53;101206.69;;;28.41;44.31
21706;BME280;11014;53.076;18.208;2023-06-26T08:25:23;101196.34;;;28.50;44.72
21706;BME280;11014;53.076;18.208;2023-06-26T08:27:51;101193.19;;;28.60;44.04
21706;BME280;11014;53.076;18.208;2023-06-26T08:30:21;101188.91;;;28.71;43.10
21706;BME280;11014;53.076;18.208;2023-06-26T08:32:50;101194.69;;;28.78;43.62
21706;BME280;11014;53.076;18.208;2023-06-26T08:35:19;101188.75;;;28.88;44.26
21706;BME280;11014;53.076;18.208;2023-06-26T08:37:48;101178.28;;;28.94;43.59
21706;BME280;11014;53.076;18.208;2023-06-26T08:40:21;101178.19;;;29.02;41.88
21706;BME280;11014;53.076;18.208;2023-06-26T08:42:50;101177.66;;;29.09;41.66
21706;BME280;11014;53.076;18.208;2023-06-26T08:45:22;101183.56;;;29.19;39.95
21706;BME280;11014;53.076;18.208;2023-06-26T08:47:53;101179.69;;;29.32;38.23
21706;BME280;11014;53.076;18.208;2023-06-26T08:50:23;101175.56;;;29.38;38.04
21706;BME280;11014;53.076;18.208;2023-06-26T08:53:02;101176.50;;;29.55;38.75
21706;BME280;11014;53.076;18.208;2023-06-26T08:55:35;101175.25;;;29.64;38.46
21706;BME280;11014;53.076;18.208;2023-06-26T08:58:05;101183.78;;;29.71;38.48
21706;BME280;11014;53.076;18.208;2023-06-26T09:00:34;101177.19;;;29.76;38.05
21706;BME280;11014;53.076;18.208;2023-06-26T09:03:03;101173.75;;;29.79;36.77
21706;BME280;11014;53.076;18.208;2023-06-26T09:05:33;101176.78;;;29.86;36.06
21706;BME280;11014;53.076;18.208;2023-06-26T09:08:02;101177.38;;;29.91;35.81
21706;BME280;11014;53.076;18.208;2023-06-26T09:10:34;101167.63;;;29.98;35.59
21706;BME280;11014;53.076;18.208;2023-06-26T09:13:06;101170.31;;;29.94;33.83
21706;BME280;11014;53.076;18.208;2023-06-26T09:15:56;101166.38;;;29.95;33.55
21706;BME280;11014;53.076;18.208;2023-06-26T09:18:26;101167.06;;;29.92;32.86
21706;BME280;11014;53.076;18.208;2023-06-26T09:20:58;101160.97;;;29.99;32.59
21706;BME280;11014;53.076;18.208;2023-06-26T09:23:27;101154.72;;;30.02;32.83
21706;BME280;11014;53.076;18.208;2023-06-26T09:25:57;101154.47;;;30.07;35.54
21706;BME280;11014;53.076;18.208;2023-06-26T09:28:25;101150.31;;;30.13;33.91
21706;BME280;11014;53.076;18.208;2023-06-26T09:31:00;101155.03;;;30.24;35.23
21706;BME280;11014;53.076;18.208;2023-06-26T09:33:33;101147.63;;;30.28;32.12
21706;BME280;11014;53.076;18.208;2023-06-26T09:36:20;101144.88;;;30.40;34.96
21706;BME280;11014;53.076;18.208;2023-06-26T09:38:53;101153.75;;;30.46;34.13
21706;BME280;11014;53.076;18.208;2023-06-26T09:41:24;101147.56;;;30.52;33.43
21706;BME280;11014;53.076;18.208;2023-06-26T09:43:56;101140.63;;;30.59;33.55
21706;BME280;11014;53.076;18.208;2023-06-26T09:46:30;101145.59;;;30.65;32.43
21706;BME280;11014;53.076;18.208;2023-06-26T09:49:07;101139.88;;;30.74;35.13
21706;BME280;11014;53.076;18.208;2023-06-26T09:51:37;101139.63;;;30.79;33.10
21706;BME280;11014;53.076;18.208;2023-06-26T09:54:07;101133.56;;;30.89;35.30
21706;BME280;11014;53.076;18.208;2023-06-26T09:56:37;101128.31;;;30.99;35.88
21706;BME280;11014;53.076;18.208;2023-06-26T09:59:06;101130.94;;;31.08;34.50
21706;BME280;11014;53.076;18.208;2023-06-26T10:01:40;101126.47;;;31.19;33.67
21706;BME280;11014;53.076;18.208;2023-06-26T10:04:09;101130.34;;;31.30;35.80
21706;BME280;11014;53.076;18.208;2023-06-26T10:06:45;101115.19;;;31.43;34.52
21706;BME280;11014;53.076;18.208;2023-06-26T10:09:19;101117.38;;;31.50;34.92
21706;BME280;11014;53.076;18.208;2023-06-26T10:11:55;101117.53;;;31.57;34.09
21706;BME280;11014;53.076;18.208;2023-06-26T10:14:27;101110.03;;;31.57;33.15
21706;BME280;11014;53.076;18.208;2023-06-26T10:16:58;101110.56;;;31.63;33.33
21706;BME280;11014;53.076;18.208;2023-06-26T10:19:28;101110.19;;;31.64;33.41
21706;BME280;11014;53.076;18.208;2023-06-26T10:21:58;101115.72;;;31.64;30.80
21706;BME280;11014;53.076;18.208;2023-06-26T10:24:31;101107.88;;;31.66;33.74
21706;BME280;11014;53.076;18.208;2023-06-26T10:27:13;101103.38;;;31.78;33.78
21706;BME280;11014;53.076;18.208;2023-06-26T10:29:46;101107.75;;;31.79;33.81
21706;BME280;11014;53.076;18.208;2023-06-26T10:32:17;101101.97;;;31.87;29.56
21706;BME280;11014;53.076;18.208;2023-06-26T10:34:47;101095.72;;;31.90;29.23
21706;BME280;11014;53.076;18.208;2023-06-26T10:37:17;101091.41;;;31.93;27.58
21706;BME280;11014;53.076;18.208;2023-06-26T10:42:14;101081.78;;;32.06;29.42
21706;BME280;11014;53.076;18.208;2023-06-26T10:44:45;101075.63;;;32.16;26.73
21706;BME280;11014;53.076;18.208;2023-06-26T10:47:29;101071.78;;;32.40;30.17
21706;BME280;11014;53.076;18.208;2023-06-26T10:50:29;101070.84;;;32.51;30.82
21706;BME280;11014;53.076;18.208;2023-06-26T10:53:10;101074.19;;;32.60;29.83
21706;BME280;11014;53.076;18.208;2023-06-26T10:55:48;101062.34;;;32.63;29.27
21706;BME280;11014;53.076;18.208;2023-06-26T10:58:40;101069.94;;;32.66;29.68
21706;BME280;11014;53.076;18.208;2023-06-26T11:01:17;101063.34;;;32.74;30.04
21706;BME280;11014;53.076;18.208;2023-06-26T11:04:06;101050.44;;;32.86;28.47
21706;BME280;11014;53.076;18.208;2023-06-26T11:06:35;101062.72;;;32.84;29.41
21706;BME280;11014;53.076;18.208;2023-06-26T11:09:09;101064.47;;;32.93;30.75
21706;BME280;11014;53.076;18.208;2023-06-26T11:14:27;101054.91;;;33.13;30.52
21706;BME280;11014;53.076;18.208;2023-06-26T11:16:56;101049.44;;;33.20;31.31
21706;BME280;11014;53.076;18.208;2023-06-26T11:19:27;101049.56;;;33.27;32.24
21706;BME280;11014;53.076;18.208;2023-06-26T11:22:00;101052.44;;;33.30;29.31
21706;BME280;11014;53.076;18.208;2023-06-26T11:24:30;101046.88;;;33.34;30.28
21706;BME280;11014;53.076;18.208;2023-06-26T11:27:00;101040.25;;;33.42;29.95
21706;BME280;11014;53.076;18.208;2023-06-26T11:29:34;101037.63;;;33.53;30.01
21706;BME280;11014;53.076;18.208;2023-06-26T11:32:04;101038.25;;;33.65;30.11
21706;BME280;11014;53.076;18.208;2023-06-26T11:34:34;101034.81;;;33.75;28.78
21706;BME280;11014;53.076;18.208;2023-06-26T11:37:04;101036.63;;;33.90;27.07
21706;BME280;11014;53.076;18.208;2023-06-26T11:39:33;101037.97;;;34.04;29.69
21706;BME280;11014;53.076;18.208;2023-06-26T11:42:02;101032.97;;;34.13;29.20
21706;BME280;11014;53.076;18.208;2023-06-26T11:44:31;101040.28;;;34.28;28.32
21706;BME280;11014;53.076;18.208;2023-06-26T11:47:00;101036.47;;;34.43;28.21
21706;BME280;11014;53.076;18.208;2023-06-26T11:49:29;101035.00;;;34.52;28.01
21706;BME280;11014;53.076;18.208;2023-06-26T11:51:58;101034.19;;;34.52;27.58
21706;BME280;11014;53.076;18.208;2023-06-26T11:54:27;101036.47;;;34.43;29.03
21706;BME280;11014;53.076;18.208;2023-06-26T11:56:58;101028.38;;;34.31;28.70
21706;BME280;11014;53.076;18.208;2023-06-26T11:59:38;101022.75;;;34.27;29.01
21706;BME280;11014;53.076;18.208;2023-06-26T12:02:09;101018.69;;;34.21;28.13
21706;BME280;11014;53.076;18.208;2023-06-26T12:04:41;101022.22;;;34.15;29.27
21706;BME280;11014;53.076;18.208;2023-06-26T12:07:10;101022.97;;;34.12;28.03
21706;BME280;11014;53.076;18.208;2023-06-26T12:10:35;101017.72;;;34.07;29.91
21706;BME280;11014;53.076;18.208;2023-06-26T12:13:08;101014.63;;;34.12;30.02
21706;BME280;11014;53.076;18.208;2023-06-26T12:19:10;101002.59;;;34.41;27.87
21706;BME280;11014;53.076;18.208;2023-06-26T12:24:31;101006.28;;;34.52;30.36
21706;BME280;11014;53.076;18.208;2023-06-26T12:27:00;101003.69;;;34.66;31.14
21706;BME280;11014;53.076;18.208;2023-06-26T12:29:33;100994.22;;;34.78;28.50
21706;BME280;11014;53.076;18.208;2023-06-26T12:32:17;100994.38;;;34.99;28.44
21706;BME280;11014;53.076;18.208;2023-06-26T12:35:13;100986.94;;;35.68;26.30
21706;BME280;11014;53.076;18.208;2023-06-26T12:37:47;100982.06;;;36.55;24.41
21706;BME280;11014;53.076;18.208;2023-06-26T12:40:49;100979.50;;;37.98;23.36
21706;BME280;11014;53.076;18.208;2023-06-26T12:43:47;100982.28;;;39.15;22.70
21706;BME280;11014;53.076;18.208;2023-06-26T12:46:18;100968.56;;;39.61;22.33
21706;BME280;11014;53.076;18.208;2023-06-26T12:48:54;100971.19;;;40.36;21.41
21706;BME280;11014;53.076;18.208;2023-06-26T12:51:22;100957.63;;;41.04;22.44
21706;BME280;11014;53.076;18.208;2023-06-26T12:57:39;100949.44;;;42.96;21.22
21706;BME280;11014;53.076;18.208;2023-06-26T13:00:08;100946.94;;;43.84;18.44
21706;BME280;11014;53.076;18.208;2023-06-26T13:02:46;100944.50;;;44.37;18.03
21706;BME280;11014;53.076;18.208;2023-06-26T13:05:14;100938.09;;;44.83;16.79
21706;BME280;11014;53.076;18.208;2023-06-26T13:07:45;100928.28;;;45.09;16.37
21706;BME280;11014;53.076;18.208;2023-06-26T13:10:21;100923.31;;;45.35;15.97
21706;BME280;11014;53.076;18.208;2023-06-26T13:12:50;100930.09;;;45.59;15.83
21706;BME280;11014;53.076;18.208;2023-06-26T13:15:19;100926.56;;;45.55;16.53
21706;BME280;11014;53.076;18.208;2023-06-26T13:17:48;100915.94;;;45.90;15.59
21706;BME280;11014;53.076;18.208;2023-06-26T13:20:43;100911.28;;;46.54;16.12
21706;BME280;11014;53.076;18.208;2023-06-26T13:23:12;100916.53;;;46.74;14.53
21706;BME280;11014;53.076;18.208;2023-06-26T13:25:44;100908.50;;;46.81;15.77
21706;BME280;11014;53.076;18.208;2023-06-26T13:28:14;100908.38;;;47.21;14.62
21706;BME280;11014;53.076;18.208;2023-06-26T13:30:42;100901.50;;;47.64;14.35